Time;durP1;ratioP1;P1;durP2;ratioP2;P2;SDS_P1;SDS_P2;PMS_P1;PMS_P2;Temp;Humidity;BMP_temperature;BMP_pressure;BME280_temperature;BME280_humidity;BME280_pressure;Samples;Min_cycle;Max_cycle;Signal;HPM_P1;HPM_P2
2023/09/24 00:03:56;;;;;;;11.30;5.80;;;;;;;10.46;100.00;100984.52;213974;1287;142146;-86
2023/09/24 00:08:56;;;;;;;8.50;5.30;;;;;;;10.45;100.00;100991.27;214900;1288;97950;-87
2023/09/24 00:13:57;;;;;;;10.30;5.40;;;;;;;10.44;100.00;100993.42;214656;1287;140131;-86
2023/09/24 00:18:57;;;;;;;8.90;5.00;;;;;;;10.42;100.00;100997.48;215232;1288;139195;-87
2023/09/24 00:23:58;;;;;;;7.70;4.70;;;;;;;10.41;100.00;100998.82;214569;1287;140976;-86
2023/09/24 00:28:58;;;;;;;10.50;5.50;;;;;;;10.40;100.00;101003.42;215749;1287;139433;-87
2023/09/24 00:33:59;;;;;;;8.00;4.60;;;;;;;10.40;100.00;101012.46;214962;1287;141452;-87
2023/09/24 00:39:00;;;;;;;9.80;5.20;;;;;;;10.39;100.00;101011.98;218705;1286;95983;-87
2023/09/24 00:44:01;;;;;;;8.60;4.80;;;;;;;10.37;100.00;101011.45;214020;1287;141177;-86
2023/09/24 00:49:01;;;;;;;9.10;5.30;;;;;;;10.35;100.00;101016.84;214723;1287;138885;-87
2023/09/24 00:54:02;;;;;;;9.50;5.30;;;;;;;10.33;100.00;101021.83;214307;1290;140775;-87
2023/09/24 00:59:06;;;;;;;9.60;5.80;;;;;;;10.32;100.00;101022.75;214783;1286;141239;-87
2023/09/24 01:04:07;;;;;;;9.30;5.30;;;;;;;10.31;100.00;101022.73;214284;1287;141806;-86
2023/09/24 01:09:09;;;;;;;8.40;5.00;;;;;;;10.29;100.00;101031.48;214080;1290;141025;-85
2023/09/24 01:14:09;;;;;;;9.00;5.10;;;;;;;10.26;100.00;101037.01;214300;1286;139475;-86
2023/09/24 01:19:10;;;;;;;10.00;5.30;;;;;;;10.23;100.00;101037.55;213606;1286;141856;-86
2023/09/24 01:24:10;;;;;;;12.40;5.30;;;;;;;10.16;100.00;101031.83;214091;1287;139071;-86
2023/09/24 01:29:11;;;;;;;8.90;4.80;;;;;;;10.10;100.00;101038.45;213622;1287;142837;-86
2023/09/24 01:34:12;;;;;;;10.50;5.10;;;;;;;10.06;100.00;101045.91;214251;1290;138671;-85
2023/09/24 01:39:17;;;;;;;9.20;4.70;;;;;;;10.02;100.00;101045.64;213783;1286;163218;-84
2023/09/24 01:44:21;;;;;;;10.70;5.70;;;;;;;9.97;100.00;101045.34;214343;1287;138602;-85
2023/09/24 01:49:21;;;;;;;9.50;5.20;;;;;;;9.91;100.00;101050.62;214287;1288;141929;-85
2023/09/24 01:54:24;;;;;;;8.70;4.80;;;;;;;9.85;100.00;101055.83;214026;1286;138829;-86
2023/09/24 01:59:26;;;;;;;9.40;5.10;;;;;;;9.81;100.00;101062.39;213708;1287;140671;-85
2023/09/24 02:04:27;;;;;;;8.30;4.70;;;;;;;9.74;100.00;101068.43;214251;1290;138689;-85
2023/09/24 02:09:27;;;;;;;7.90;4.80;;;;;;;9.67;100.00;101078.63;213740;1290;142545;-85
2023/09/24 02:14:28;;;;;;;7.70;4.30;;;;;;;9.60;100.00;101083.39;214220;1288;138492;-85
2023/09/24 02:19:28;;;;;;;7.50;4.50;;;;;;;9.55;100.00;101089.71;213652;1287;141692;-85
2023/09/24 02:24:29;;;;;;;9.30;5.20;;;;;;;9.49;100.00;101096.23;214105;1286;138605;-85
2023/09/24 02:29:29;;;;;;;10.10;4.90;;;;;;;9.44;100.00;101102.61;213654;1287;140601;-85
2023/09/24 02:34:30;;;;;;;9.60;5.20;;;;;;;9.38;100.00;101100.09;214373;1286;138878;-84
2023/09/24 02:39:30;;;;;;;8.70;5.10;;;;;;;9.32;100.00;101106.20;213753;1287;141968;-84
2023/09/24 02:44:30;;;;;;;9.40;5.40;;;;;;;9.28;100.00;101108.91;214202;1287;138133;-85
2023/09/24 02:49:31;;;;;;;8.20;5.00;;;;;;;9.25;100.00;101110.34;213581;1290;139973;-85
2023/09/24 02:54:31;;;;;;;9.50;5.00;;;;;;;9.21;100.00;101116.19;214166;1287;138595;-86
2023/09/24 02:59:32;;;;;;;10.80;5.40;;;;;;;9.16;100.00;101125.86;213764;1287;140190;-84
2023/09/24 03:04:32;;;;;;;9.20;5.70;;;;;;;9.12;100.00;101135.71;214112;1290;138724;-84
2023/09/24 03:09:32;;;;;;;10.30;5.70;;;;;;;9.07;100.00;101140.04;213866;1287;140981;-84
2023/09/24 03:14:33;;;;;;;13.20;6.20;;;;;;;9.03;100.00;101150.83;214284;1290;138445;-84
2023/09/24 03:19:33;;;;;;;10.40;5.80;;;;;;;9.01;100.00;101161.03;213673;1288;140277;-84
2023/09/24 03:24:34;;;;;;;9.30;5.30;;;;;;;8.97;100.00;101163.99;214395;1287;138619;-84
2023/09/24 03:29:34;;;;;;;9.20;5.00;;;;;;;8.95;100.00;101166.06;213721;1288;140565;-84
2023/09/24 03:34:35;;;;;;;10.10;5.30;;;;;;;8.92;100.00;101170.67;214223;1287;139349;-84
2023/09/24 03:39:35;;;;;;;9.20;5.40;;;;;;;8.88;100.00;101170.08;213734;1287;140492;-84
2023/09/24 03:44:36;;;;;;;9.80;5.60;;;;;;;8.84;100.00;101183.30;214179;1287;138221;-84
2023/09/24 03:49:36;;;;;;;9.90;5.60;;;;;;;8.81;100.00;101193.39;213890;1289;141871;-86
2023/09/24 03:54:38;;;;;;;10.10;5.20;;;;;;;8.78;100.00;101199.50;214093;1288;138505;-84
2023/09/24 03:59:39;;;;;;;9.90;5.90;;;;;;;8.76;100.00;101206.10;213716;1288;141117;-84
2023/09/24 04:04:39;;;;;;;10.10;5.70;;;;;;;8.72;100.00;101214.60;214746;1290;139148;-84
2023/09/24 04:09:39;;;;;;;8.70;5.10;;;;;;;8.68;100.00;101211.58;215772;1286;143117;-83
2023/09/24 04:14:40;;;;;;;10.00;5.70;;;;;;;8.64;100.00;101235.69;216227;1288;97689;-84
2023/09/24 04:19:40;;;;;;;9.40;5.60;;;;;;;8.61;100.00;101243.44;215342;1286;141405;-84
2023/09/24 04:24:41;;;;;;;12.00;6.20;;;;;;;8.60;100.00;101250.76;215465;1290;139223;-84
2023/09/24 04:29:41;;;;;;;10.00;5.30;;;;;;;8.58;100.00;101253.66;215510;1288;141026;-84
2023/09/24 04:34:45;;;;;;;10.60;5.50;;;;;;;8.56;100.00;101261.91;216305;1287;139687;-85
2023/09/24 04:39:46;;;;;;;10.60;6.20;;;;;;;8.52;100.00;101267.19;215533;1287;141100;-85
2023/09/24 04:44:47;;;;;;;10.60;5.80;;;;;;;8.49;100.00;101272.73;215654;1288;99272;-85
2023/09/24 04:49:47;;;;;;;10.20;5.90;;;;;;;8.46;100.00;101285.89;214823;1286;141478;-85
2023/09/24 04:54:47;;;;;;;9.60;5.60;;;;;;;8.45;100.00;101292.11;215457;1287;140256;-85
2023/09/24 04:59:53;;;;;;;9.60;5.40;;;;;;;8.43;100.00;101296.36;214929;1287;141807;-84
2023/09/24 05:04:54;;;;;;;11.70;5.50;;;;;;;8.42;100.00;101298.83;215687;1287;138505;-85
2023/09/24 05:09:55;;;;;;;10.40;5.90;;;;;;;8.40;100.00;101301.20;215044;1288;141556;-84
2023/09/24 05:14:56;;;;;;;9.50;5.80;;;;;;;8.39;100.00;101313.55;215674;1287;96631;-85
2023/09/24 05:19:56;;;;;;;12.00;6.80;;;;;;;8.38;100.00;101320.16;214839;1286;141025;-85
2023/09/24 05:24:57;;;;;;;9.40;5.30;;;;;;;8.39;100.00;101328.04;215467;1287;138850;-84
2023/09/24 05:29:57;;;;;;;9.60;5.90;;;;;;;8.38;100.00;101325.14;214995;1288;140961;-84
2023/09/24 05:34:57;;;;;;;13.60;6.30;;;;;;;8.40;100.00;101325.89;215560;1288;138445;-84
2023/09/24 05:39:58;;;;;;;10.60;6.60;;;;;;;8.43;100.00;101328.40;215176;1288;141361;-85
2023/09/24 05:44:59;;;;;;;9.80;5.90;;;;;;;8.49;100.00;101336.70;215832;1288;97917;-84
2023/09/24 05:50:02;;;;;;;10.30;6.00;;;;;;;8.55;100.00;101339.56;215141;1290;141852;-84
2023/09/24 05:55:03;;;;;;;11.30;6.90;;;;;;;8.59;100.00;101348.16;215661;1290;139095;-84
2023/09/24 06:00:04;;;;;;;10.80;6.20;;;;;;;8.64;100.00;101360.27;215150;1288;141148;-84
2023/09/24 06:05:09;;;;;;;14.00;6.50;;;;;;;8.70;100.00;101355.77;215648;1290;138685;-84
2023/09/24 06:10:10;;;;;;;10.50;6.40;;;;;;;8.78;100.00;101359.00;215077;1288;143013;-84
2023/09/24 06:15:11;;;;;;;12.50;7.00;;;;;;;8.86;100.00;101369.45;215548;1290;107683;-84
2023/09/24 06:20:12;;;;;;;12.80;7.50;;;;;;;8.96;100.00;101377.56;215016;1290;144184;-84
2023/09/24 06:25:12;;;;;;;15.60;8.90;;;;;;;9.07;100.00;101376.04;215540;1288;138649;-84
2023/09/24 06:30:13;;;;;;;12.70;8.30;;;;;;;9.20;100.00;101393.09;215072;1287;141070;-84
2023/09/24 06:35:14;;;;;;;13.40;7.80;;;;;;;9.32;100.00;101406.60;215545;1288;138701;-84
2023/09/24 06:40:14;;;;;;;14.20;8.60;;;;;;;9.48;100.00;101399.00;215163;1288;140888;-83
2023/09/24 06:45:15;;;;;;;15.60;8.80;;;;;;;9.62;100.00;101414.83;215721;1286;96691;-86
2023/09/24 06:50:15;;;;;;;15.10;9.40;;;;;;;9.76;100.00;101415.71;215000;1287;143517;-86
2023/09/24 06:55:15;;;;;;;16.60;9.40;;;;;;;9.90;100.00;101423.23;215806;1287;140149;-87
2023/09/24 07:00:16;;;;;;;16.50;11.70;;;;;;;10.06;100.00;101434.10;215098;1286;141299;-86
2023/09/24 07:05:17;;;;;;;17.40;10.20;;;;;;;10.24;100.00;101437.44;215451;1287;139108;-84
2023/09/24 07:10:22;;;;;;;19.60;10.90;;;;;;;10.41;100.00;101450.19;214983;1289;140605;-85
2023/09/24 07:15:22;;;;;;;13.50;9.20;;;;;;;10.58;100.00;101452.64;215558;1288;106604;-84
2023/09/24 07:20:23;;;;;;;17.20;9.90;;;;;;;10.76;100.00;101461.60;215046;1288;142607;-84
2023/09/24 07:25:23;;;;;;;14.40;9.40;;;;;;;10.92;100.00;101464.48;215390;1288;138873;-85
2023/09/24 07:30:24;;;;;;;15.10;10.30;;;;;;;11.08;100.00;101476.86;214925;1287;141748;-84
2023/09/24 07:35:25;;;;;;;17.00;10.30;;;;;;;11.24;100.00;101485.45;215312;1290;139206;-85
2023/09/24 07:40:25;;;;;;;14.00;9.50;;;;;;;11.41;100.00;101492.88;214682;1288;141794;-84
2023/09/24 07:45:25;;;;;;;20.10;11.40;;;;;;;11.59;100.00;101496.17;215426;1287;98166;-85
2023/09/24 07:50:26;;;;;;;16.50;10.60;;;;;;;11.78;100.00;101499.48;214817;1289;141704;-86
2023/09/24 07:55:27;;;;;;;16.50;10.90;;;;;;;11.99;100.00;101501.14;215556;1290;139563;-87
2023/09/24 08:00:28;;;;;;;18.20;11.70;;;;;;;12.21;100.00;101501.64;214827;1290;141059;-87
2023/09/24 08:05:28;;;;;;;16.90;10.70;;;;;;;12.46;100.00;101501.46;215687;1291;139818;-87
2023/09/24 08:10:29;;;;;;;16.80;10.60;;;;;;;12.73;100.00;101503.36;215057;1286;141390;-87
2023/09/24 08:15:30;;;;;;;19.30;11.10;;;;;;;13.03;100.00;101506.46;215598;1289;98036;-87
2023/09/24 08:20:31;;;;;;;17.10;9.60;;;;;;;13.33;100.00;101510.08;215036;1286;141656;-88
2023/09/24 08:25:32;;;;;;;16.50;9.70;;;;;;;13.66;100.00;101516.48;214803;1287;139019;-87
2023/09/24 08:30:33;;;;;;;15.90;9.70;;;;;;;14.03;100.00;101518.33;214052;1291;140843;-87
2023/09/24 08:35:36;;;;;;;14.80;9.50;;;;;;;14.39;100.00;101521.92;214736;1292;139598;-86
2023/09/24 08:40:39;;;;;;;17.60;10.60;;;;;;;14.77;100.00;101519.87;214386;1292;141849;-86
2023/09/24 08:45:41;;;;;;;14.40;9.30;;;;;;;15.25;100.00;101521.73;214857;1289;107213;-86
2023/09/24 08:50:41;;;;;;;14.20;8.90;;;;;;;15.73;100.00;101513.28;214082;1291;144154;-86
2023/09/24 08:55:43;;;;;;;12.60;7.80;;;;;;;16.36;100.00;101517.24;214722;1292;140077;-86
2023/09/24 09:00:44;;;;;;;10.30;7.40;;;;;;;17.08;100.00;101518.86;216641;1288;141730;-87
2023/09/24 09:05:44;;;;;;;11.40;7.20;;;;;;;17.87;100.00;101524.23;214787;1293;139036;-85
2023/09/24 09:10:48;;;;;;;11.90;7.10;;;;;;;18.77;100.00;101534.91;214259;1290;141265;-85
2023/09/24 09:16:08;;;;;;;10.80;5.90;;;;;;;19.65;100.00;101536.58;214829;1290;138980;-87
2023/09/24 09:21:08;;;;;;;13.10;6.10;;;;;;;20.54;100.00;101544.73;214325;1289;141728;-87
2023/09/24 09:26:09;;;;;;;11.00;6.00;;;;;;;21.41;99.66;101553.49;214833;1289;139005;-87
2023/09/24 09:31:11;;;;;;;8.90;5.50;;;;;;;22.17;96.76;101555.11;214282;1290;140595;-86
2023/09/24 09:36:27;;;;;;;12.00;5.30;;;;;;;22.95;93.27;101554.04;215109;1290;139234;-86
2023/09/24 09:41:31;;;;;;;9.50;5.30;;;;;;;23.63;88.03;101556.89;217201;1290;142797;-87
2023/09/24 09:46:39;;;;;;;7.80;4.00;;;;;;;24.22;85.02;101556.20;215193;1286;139758;-86
2023/09/24 09:51:48;;;;;;;8.40;5.10;;;;;;;24.68;80.50;101556.20;214826;1290;141527;-85
2023/09/24 09:56:50;;;;;;;8.60;4.00;;;;;;;24.82;75.57;101558.92;215614;1287;97927;-87
2023/09/24 10:01:52;;;;;;;7.70;4.00;;;;;;;25.08;74.85;101570.85;216220;1287;139841;-87
2023/09/24 10:06:52;;;;;;;7.40;3.80;;;;;;;25.33;72.63;101575.80;217288;1287;138198;-86
2023/09/24 10:11:55;;;;;;;5.20;3.10;;;;;;;25.65;72.16;101568.34;216906;1286;140867;-86
2023/09/24 10:16:56;;;;;;;5.60;2.40;;;;;;;25.95;69.65;101570.98;217889;1287;138017;-87
2023/09/24 10:22:23;;;;;;;5.80;3.00;;;;;;;26.18;68.29;101577.48;217141;1287;139360;-88
2023/09/24 10:27:29;;;;;;;7.80;3.30;;;;;;;26.49;65.68;101577.20;217470;1287;109764;-88
2023/09/24 10:32:42;;;;;;;7.40;2.90;;;;;;;26.64;64.20;101579.41;217370;1287;139785;-85
2023/09/24 10:37:58;;;;;;;4.20;2.60;;;;;;;26.74;64.14;101586.61;217908;1286;138364;-87
2023/09/24 10:43:13;;;;;;;7.80;3.10;;;;;;;27.02;62.66;101576.58;217181;1287;140467;-87
2023/09/24 10:48:13;;;;;;;3.80;2.00;;;;;;;27.02;61.08;101583.63;217985;1287;138872;-87
2023/09/24 10:53:17;;;;;;;5.30;2.40;;;;;;;27.01;59.23;101577.52;217569;1286;140285;-88
2023/09/24 10:58:18;;;;;;;4.50;2.10;;;;;;;26.86;58.58;101583.97;218141;1286;138189;-87
2023/09/24 11:03:18;;;;;;;5.70;2.50;;;;;;;26.75;58.67;101589.08;217444;1287;295297;-87
2023/09/24 11:08:28;;;;;;;3.30;2.00;;;;;;;26.63;59.17;101596.80;218215;1286;137858;-87
2023/09/24 11:13:28;;;;;;;6.80;2.80;;;;;;;26.66;57.37;101595.56;217608;1287;140582;-88
2023/09/24 11:18:31;;;;;;;4.50;2.10;;;;;;;26.46;56.83;101595.55;218056;1286;138180;-88
2023/09/24 11:23:36;;;;;;;3.50;2.30;;;;;;;26.20;57.31;101598.80;217658;1287;140478;-87
2023/09/24 11:28:37;;;;;;;2.60;1.70;;;;;;;26.17;57.46;101600.36;217643;1288;138135;-87
2023/09/24 11:33:37;;;;;;;3.30;1.50;;;;;;;25.99;57.33;101598.64;217662;1288;140868;-86
2023/09/24 11:38:40;;;;;;;3.70;1.70;;;;;;;25.87;58.35;101605.08;218100;1285;138993;-87
2023/09/24 11:43:41;;;;;;;3.80;1.60;;;;;;;26.01;58.04;101601.95;217745;1286;140230;-87
2023/09/24 11:48:43;;;;;;;2.40;1.40;;;;;;;25.95;56.82;101593.12;216697;1286;138166;-87
2023/09/24 11:53:44;;;;;;;3.80;1.30;;;;;;;25.39;56.18;101599.61;216652;1286;141461;-87
2023/09/24 11:58:44;;;;;;;2.10;1.50;;;;;;;25.28;57.88;101596.25;218029;1286;138083;-87
2023/09/24 12:03:45;;;;;;;3.10;1.50;;;;;;;25.29;56.60;101593.41;217821;1287;140298;-87
2023/09/24 12:08:45;;;;;;;2.80;1.40;;;;;;;25.17;56.56;101595.36;218279;1286;137988;-87
2023/09/24 12:13:46;;;;;;;2.70;1.60;;;;;;;24.84;56.73;101597.39;217723;1287;140098;-88
2023/09/24 12:18:47;;;;;;;1.60;1.10;;;;;;;24.76;58.49;101595.63;218213;1286;138948;-87
2023/09/24 12:23:48;;;;;;;3.70;1.70;;;;;;;24.73;57.72;101596.10;217451;1287;141380;-87
2023/09/24 12:28:48;;;;;;;2.90;1.60;;;;;;;24.46;57.81;101598.47;218017;1287;139231;-86
2023/09/24 12:33:48;;;;;;;2.20;1.20;;;;;;;24.27;58.08;101593.17;217698;1286;141472;-86
2023/09/24 12:38:49;;;;;;;2.30;1.20;;;;;;;24.08;57.27;101590.64;218116;1287;98882;-86
2023/09/24 12:43:49;;;;;;;3.40;1.20;;;;;;;23.88;57.04;101592.59;217424;1287;140813;-86
2023/09/24 12:48:49;;;;;;;4.60;2.10;;;;;;;23.46;58.44;101596.17;218053;1286;138136;-86
2023/09/24 12:53:50;;;;;;;3.10;1.50;;;;;;;23.29;59.13;101597.42;217544;1286;140004;-87
2023/09/24 12:58:51;;;;;;;2.60;1.40;;;;;;;22.94;60.34;101602.34;217985;1287;137917;-86
2023/09/24 13:03:52;;;;;;;3.30;1.50;;;;;;;22.80;61.69;101597.75;217463;1286;140746;-85
2023/09/24 13:08:53;;;;;;;1.30;1.00;;;;;;;22.77;61.76;101594.60;218029;1286;97871;-86
2023/09/24 13:13:53;;;;;;;3.20;1.50;;;;;;;22.65;61.06;101593.57;217389;1286;139514;-86
2023/09/24 13:18:54;;;;;;;2.30;1.40;;;;;;;22.26;60.48;101591.65;217700;1286;137896;-86
2023/09/24 13:23:54;;;;;;;1.60;0.80;;;;;;;22.04;61.49;101589.80;217518;1287;142099;-85
2023/09/24 13:28:55;;;;;;;4.40;1.60;;;;;;;21.95;61.81;101585.72;217759;1286;138070;-87
2023/09/24 13:33:56;;;;;;;4.70;1.40;;;;;;;21.78;60.91;101590.80;216480;1286;140010;-85
2023/09/24 13:38:56;;;;;;;3.10;1.10;;;;;;;21.47;60.79;101595.19;217056;1286;97866;-86
2023/09/24 13:43:57;;;;;;;2.40;1.20;;;;;;;21.36;62.24;101593.27;217683;1286;139881;-86
2023/09/24 13:48:59;;;;;;;3.40;1.30;;;;;;;21.36;62.71;101595.50;217965;1288;139018;-87
2023/09/24 13:54:00;;;;;;;2.20;1.30;;;;;;;21.39;63.55;101599.05;217511;1287;140721;-86
2023/09/24 13:59:00;;;;;;;6.20;2.90;;;;;;;21.33;62.88;101603.08;217991;1286;138346;-86
2023/09/24 14:04:01;;;;;;;5.40;2.40;;;;;;;21.17;63.85;101608.25;217165;1286;140120;-84
2023/09/24 14:14:21;;;;;;;4.40;2.00;;;;;;;20.79;65.63;101600.25;217696;1287;138380;-86
2023/09/24 14:19:21;;;;;;;5.50;1.80;;;;;;;20.70;66.93;101601.15;217669;1286;140441;-86
2023/09/24 14:24:22;;;;;;;3.40;1.90;;;;;;;20.66;66.47;101599.42;218297;1286;138496;-86
2023/09/24 14:29:23;;;;;;;4.80;2.00;;;;;;;20.48;66.36;101601.09;217729;1287;139896;-85
2023/09/24 14:34:23;;;;;;;3.20;2.00;;;;;;;20.37;66.88;101601.98;218064;1287;138255;-85
2023/09/24 14:39:24;;;;;;;4.60;1.70;;;;;;;20.29;66.55;101605.75;217442;1286;140920;-85
2023/09/24 14:44:25;;;;;;;3.70;1.80;;;;;;;20.15;67.51;101602.52;218052;1286;138370;-85
2023/09/24 14:49:25;;;;;;;3.40;1.20;;;;;;;20.15;67.27;101607.88;217558;1286;141624;-85
2023/09/24 14:54:26;;;;;;;3.50;1.50;;;;;;;20.05;66.50;101608.91;217957;1289;138129;-86
2023/09/24 14:59:26;;;;;;;2.60;1.60;;;;;;;20.01;66.59;101607.34;217719;1286;140406;-85
2023/09/24 15:04:28;;;;;;;3.50;1.40;;;;;;;19.90;66.22;101608.95;218013;1286;140221;-86
2023/09/24 15:09:29;;;;;;;3.10;1.50;;;;;;;19.80;66.98;101613.34;217486;1287;139782;-86
2023/09/24 15:14:29;;;;;;;2.90;1.60;;;;;;;19.79;67.34;101606.89;217875;1287;138166;-86
2023/09/24 15:19:31;;;;;;;2.90;1.50;;;;;;;19.73;67.20;101609.80;217354;1287;140289;-86
2023/09/24 15:24:31;;;;;;;3.80;1.60;;;;;;;19.58;67.63;101610.15;216098;1286;138147;-85
2023/09/24 15:29:32;;;;;;;3.70;1.50;;;;;;;19.50;67.81;101611.41;217233;1287;164277;-86
2023/09/24 15:34:33;;;;;;;4.10;1.60;;;;;;;19.37;67.73;101615.71;217764;1286;139942;-87
2023/09/24 15:39:33;;;;;;;4.30;1.70;;;;;;;19.25;68.14;101621.05;217433;1286;140506;-89
2023/09/24 15:44:34;;;;;;;5.00;1.80;;;;;;;19.10;68.21;101623.96;217706;1286;137946;-86
2023/09/24 15:49:35;;;;;;;2.80;1.30;;;;;;;18.94;68.86;101629.06;217291;1286;140334;-88
2023/09/24 15:54:35;;;;;;;3.00;1.30;;;;;;;18.84;69.53;101634.35;217708;1287;138183;-88
2023/09/24 15:59:35;;;;;;;3.20;1.50;;;;;;;18.69;70.24;101640.30;217416;1286;140673;-88
2023/09/24 16:04:36;;;;;;;4.10;1.60;;;;;;;18.59;71.66;101643.67;218109;1286;138404;-87
2023/09/24 16:09:36;;;;;;;4.80;2.00;;;;;;;18.50;72.62;101645.92;217638;1286;140850;-88
2023/09/24 16:14:37;;;;;;;5.50;2.10;;;;;;;18.36;73.21;101652.39;217140;1287;140380;-89
2023/09/24 16:19:37;;;;;;;4.00;1.80;;;;;;;18.21;73.88;101653.98;215120;1286;140466;-89
2023/09/24 16:24:37;;;;;;;5.20;2.10;;;;;;;17.99;74.40;101659.39;215944;1286;138860;-88
2023/09/24 16:29:38;;;;;;;6.40;2.70;;;;;;;17.83;75.10;101661.91;215698;1290;140396;-88
2023/09/24 16:34:39;;;;;;;5.50;2.20;;;;;;;17.61;75.61;101665.15;216353;1287;138877;-88
2023/09/24 16:39:39;;;;;;;4.70;2.50;;;;;;;17.47;76.60;101672.99;215469;1286;140246;-88
2023/09/24 16:44:40;;;;;;;6.20;2.60;;;;;;;17.30;77.15;101675.84;216025;1287;139048;-89
2023/09/24 16:49:40;;;;;;;6.60;2.90;;;;;;;17.16;77.89;101682.39;215252;1290;141065;-89
2023/09/24 16:54:40;;;;;;;8.90;4.10;;;;;;;17.00;78.06;101691.05;216276;1287;138774;-88
2023/09/24 16:59:41;;;;;;;7.10;3.80;;;;;;;16.79;79.28;101694.98;216189;1286;141307;-89
2023/09/24 17:04:41;;;;;;;10.40;4.20;;;;;;;16.50;80.51;101700.91;218375;1287;138893;-88
2023/09/24 17:09:41;;;;;;;7.70;3.60;;;;;;;16.30;81.45;101700.66;214724;1286;142106;-88
2023/09/24 17:14:44;;;;;;;6.70;3.30;;;;;;;16.05;82.84;101708.14;214390;1287;138378;-87
2023/09/24 17:19:46;;;;;;;7.20;3.60;;;;;;;15.81;83.90;101712.90;213920;1287;141227;-90
2023/09/24 17:24:49;;;;;;;9.20;4.60;;;;;;;15.56;85.04;101719.45;214472;1290;139439;-90
2023/09/24 17:29:50;;;;;;;11.00;5.90;;;;;;;15.33;85.85;101722.33;213652;1287;140616;-89
2023/09/24 17:34:52;;;;;;;10.20;6.00;;;;;;;15.15;86.48;101726.11;214541;1288;139556;-90
2023/09/24 17:39:52;;;;;;;10.30;5.00;;;;;;;15.04;86.81;101734.05;213907;1287;142158;-88
2023/09/24 17:44:53;;;;;;;9.00;4.40;;;;;;;14.90;87.86;101735.27;214506;1286;98045;-88
2023/09/24 17:49:54;;;;;;;7.10;3.70;;;;;;;14.70;88.86;101745.75;213981;1289;140977;-89
2023/09/24 17:54:55;;;;;;;7.60;3.90;;;;;;;14.50;89.27;101752.09;215346;1290;140081;-88
2023/09/24 17:59:55;;;;;;;9.40;4.80;;;;;;;14.30;89.92;101752.46;214065;1287;142509;-89
2023/09/24 18:04:58;;;;;;;11.70;5.20;;;;;;;14.12;90.75;101752.59;214621;1290;138931;-87
2023/09/24 18:10:00;;;;;;;10.30;5.60;;;;;;;13.97;91.95;101754.14;213621;1287;141849;-89
2023/09/24 18:15:04;;;;;;;12.00;6.20;;;;;;;13.87;92.50;101764.47;214511;1287;105277;-89
2023/09/24 18:20:05;;;;;;;9.40;5.30;;;;;;;13.75;93.25;101776.57;214081;1289;141759;-87
2023/09/24 18:25:05;;;;;;;13.30;5.50;;;;;;;13.59;93.20;101779.56;215704;1287;138788;-87
2023/09/24 18:30:07;;;;;;;9.90;5.90;;;;;;;13.47;93.85;101787.85;215110;1285;141147;-88
2023/09/24 18:35:10;;;;;;;9.20;5.00;;;;;;;13.36;94.87;101791.96;215759;1287;139874;-87
2023/09/24 18:40:11;;;;;;;11.00;6.10;;;;;;;13.24;95.18;101800.71;215077;1290;141475;-87
2023/09/24 18:45:11;;;;;;;12.40;6.80;;;;;;;13.14;96.11;101801.91;215778;1287;97942;-86
2023/09/24 18:50:12;;;;;;;11.70;6.60;;;;;;;13.05;96.21;101808.23;215117;1286;141319;-86
2023/09/24 18:55:12;;;;;;;18.00;7.40;;;;;;;12.96;96.88;101813.88;216207;1287;138681;-86
2023/09/24 19:00:13;;;;;;;10.30;5.60;;;;;;;12.88;97.58;101815.96;215557;1290;140829;-86
2023/09/24 19:05:15;;;;;;;11.00;5.50;;;;;;;12.81;97.82;101822.02;216162;1287;138967;-87
2023/09/24 19:10:17;;;;;;;10.50;5.20;;;;;;;12.73;98.37;101822.61;215732;1286;141317;-85
2023/09/24 19:15:17;;;;;;;9.40;4.40;;;;;;;12.65;98.83;101823.91;216263;1287;111499;-86
2023/09/24 19:20:18;;;;;;;9.10;4.70;;;;;;;12.58;99.10;101826.73;215171;1287;140528;-85
2023/09/24 19:25:19;;;;;;;10.70;4.90;;;;;;;12.52;99.25;101827.11;215850;1286;139267;-86
2023/09/24 19:30:20;;;;;;;8.80;4.30;;;;;;;12.46;99.73;101829.42;215080;1288;141102;-86
2023/09/24 19:35:20;;;;;;;9.30;4.60;;;;;;;12.40;99.79;101828.56;215824;1287;138661;-86
2023/09/24 19:40:21;;;;;;;10.10;4.30;;;;;;;12.35;99.89;101833.39;215060;1287;141784;-85
2023/09/24 19:45:21;;;;;;;11.50;4.40;;;;;;;12.29;100.00;101841.90;215780;1287;96686;-86
2023/09/24 19:50:22;;;;;;;7.40;4.10;;;;;;;12.23;100.00;101842.44;215092;1288;140707;-86
2023/09/24 19:55:22;;;;;;;7.80;3.90;;;;;;;12.17;100.00;101846.73;215607;1287;139448;-86
2023/09/24 20:00:23;;;;;;;8.20;4.20;;;;;;;12.13;100.00;101848.80;215118;1287;142506;-86
2023/09/24 20:05:23;;;;;;;9.00;3.80;;;;;;;12.09;100.00;101858.39;215687;1286;138834;-86
2023/09/24 20:10:23;;;;;;;9.60;3.80;;;;;;;12.04;100.00;101860.23;215172;1287;141991;-86
2023/09/24 20:15:24;;;;;;;7.60;3.70;;;;;;;12.00;100.00;101858.77;215736;1286;98148;-87
2023/09/24 20:20:24;;;;;;;7.60;3.60;;;;;;;11.96;100.00;101859.05;215154;1288;141656;-87
2023/09/24 20:25:39;;;;;;;9.30;4.60;;;;;;;11.91;100.00;101856.64;215535;1290;139080;-87
2023/09/24 20:30:46;;;;;;;10.10;4.30;;;;;;;11.86;100.00;101855.39;215610;1287;140532;-87
2023/09/24 20:35:46;;;;;;;12.40;4.40;;;;;;;11.81;100.00;101860.02;215715;1286;138997;-87
2023/09/24 20:40:47;;;;;;;9.20;4.60;;;;;;;11.77;100.00;101861.98;214934;1287;141120;-86
2023/09/24 20:45:56;;;;;;;11.20;5.10;;;;;;;11.73;100.00;101861.00;216080;1287;97912;-86
2023/09/24 20:50:57;;;;;;;11.80;5.20;;;;;;;11.68;100.00;101860.38;215260;1287;139553;-85
2023/09/24 20:55:57;;;;;;;12.90;5.70;;;;;;;11.63;100.00;101860.85;215580;1288;139414;-87
2023/09/24 21:00:59;;;;;;;13.10;5.80;;;;;;;11.57;100.00;101864.44;214920;1287;141156;-86
2023/09/24 21:06:01;;;;;;;10.80;6.80;;;;;;;11.53;100.00;101858.01;215283;1290;140121;-86
2023/09/24 21:11:01;;;;;;;13.90;7.60;;;;;;;11.51;100.00;101858.02;214916;1285;144009;-87
2023/09/24 21:16:02;;;;;;;12.90;6.90;;;;;;;11.49;100.00;101855.36;215432;1288;139863;-86
2023/09/24 21:21:02;;;;;;;13.00;7.10;;;;;;;11.48;100.00;101852.58;215047;1288;141562;-86
2023/09/24 21:26:05;;;;;;;14.60;7.60;;;;;;;11.46;100.00;101852.83;215410;1287;138843;-87
2023/09/24 21:31:08;;;;;;;14.50;7.10;;;;;;;11.45;100.00;101850.42;214977;1287;142017;-86
2023/09/24 21:36:09;;;;;;;14.80;7.50;;;;;;;11.44;100.00;101847.50;215214;1287;139492;-87
2023/09/24 21:41:09;;;;;;;13.80;6.20;;;;;;;11.43;100.00;101840.28;214771;1288;142396;-87
2023/09/24 21:46:17;;;;;;;12.40;6.20;;;;;;;11.42;100.00;101833.56;215250;1290;139917;-86
2023/09/24 21:51:17;;;;;;;10.10;5.20;;;;;;;11.42;100.00;101824.89;214788;1287;141420;-87
2023/09/24 21:56:18;;;;;;;15.30;6.90;;;;;;;11.39;100.00;101819.39;215262;1287;139354;-86
2023/09/24 22:01:19;;;;;;;12.30;6.40;;;;;;;11.36;100.00;101821.55;214564;1286;141033;-86
2023/09/24 22:06:19;;;;;;;14.90;7.60;;;;;;;11.34;100.00;101827.55;215315;1287;139745;-86
2023/09/24 22:11:19;;;;;;;13.50;7.00;;;;;;;11.31;100.00;101825.68;215332;1287;141353;-87
2023/09/24 22:16:21;;;;;;;12.40;6.70;;;;;;;11.29;100.00;101826.39;215713;1288;139071;-87
2023/09/24 22:21:21;;;;;;;12.00;6.40;;;;;;;11.27;100.00;101824.84;215514;1286;142893;-86
2023/09/24 22:26:22;;;;;;;13.70;6.30;;;;;;;11.26;100.00;101828.11;216461;1287;139033;-86
2023/09/24 22:31:22;;;;;;;15.30;6.90;;;;;;;11.24;100.00;101826.09;216016;1288;140610;-85
2023/09/24 22:36:23;;;;;;;11.90;6.40;;;;;;;11.23;100.00;101821.81;216388;1290;138967;-86
2023/09/24 22:41:24;;;;;;;12.00;6.30;;;;;;;11.23;100.00;101825.25;215037;1287;139855;-86
2023/09/24 22:46:24;;;;;;;13.90;5.80;;;;;;;11.20;100.00;101827.94;215431;1286;139057;-86